sensor_id;sensor_type;location;lat;lon;timestamp;pressure;altitude;pressure_sealevel;temperature;humidity
50356;BME280;36264;51.296;-0.602;2023-04-21T00:00:48;101412.13;;;14.78;57.05
50356;BME280;36264;51.296;-0.602;2023-04-21T00:03:13;101402.28;;;14.61;57.63
50356;BME280;36264;51.296;-0.602;2023-04-21T00:05:38;101401.47;;;14.59;57.85
50356;BME280;36264;51.296;-0.602;2023-04-21T00:08:07;101411.84;;;14.62;58.26
50356;BME280;36264;51.296;-0.602;2023-04-21T00:10:32;101412.09;;;14.55;58.26
50356;BME280;36264;51.296;-0.602;2023-04-21T00:12:58;101404.59;;;14.45;58.13
50356;BME280;36264;51.296;-0.602;2023-04-21T00:15:24;101406.31;;;14.46;58.51
50356;BME280;36264;51.296;-0.602;2023-04-21T00:17:49;101410.38;;;14.54;57.96
50356;BME280;36264;51.296;-0.602;2023-04-21T00:20:15;101399.88;;;14.55;58.06
50356;BME280;36264;51.296;-0.602;2023-04-21T00:22:40;101398.22;;;14.53;58.52
50356;BME280;36264;51.296;-0.602;2023-04-21T00:25:06;101389.47;;;14.54;58.48
50356;BME280;36264;51.296;-0.602;2023-04-21T00:27:31;101394.69;;;14.54;58.62
50356;BME280;36264;51.296;-0.602;2023-04-21T00:29:56;101393.03;;;14.51;58.88
50356;BME280;36264;51.296;-0.602;2023-04-21T00:32:22;101400.75;;;14.54;58.51
50356;BME280;36264;51.296;-0.602;2023-04-21T00:34:47;101389.56;;;14.50;58.84
50356;BME280;36264;51.296;-0.602;2023-04-21T00:37:12;101389.00;;;14.42;58.96
50356;BME280;36264;51.296;-0.602;2023-04-21T00:39:38;101389.81;;;14.44;58.91
50356;BME280;36264;51.296;-0.602;2023-04-21T00:42:03;101393.22;;;14.46;58.66
50356;BME280;36264;51.296;-0.602;2023-04-21T00:44:29;101389.41;;;14.55;58.88
50356;BME280;36264;51.296;-0.602;2023-04-21T00:46:54;101383.34;;;14.55;58.98
50356;BME280;36264;51.296;-0.602;2023-04-21T00:49:19;101381.78;;;14.49;59.67
50356;BME280;36264;51.296;-0.602;2023-04-21T00:51:46;101377.56;;;14.46;59.47
50356;BME280;36264;51.296;-0.602;2023-04-21T00:54:12;101359.97;;;14.50;59.22
50356;BME280;36264;51.296;-0.602;2023-04-21T00:56:38;101372.28;;;14.48;59.17
50356;BME280;36264;51.296;-0.602;2023-04-21T00:59:03;101362.47;;;14.53;59.32
50356;BME280;36264;51.296;-0.602;2023-04-21T01:01:32;101368.97;;;14.66;59.17
50356;BME280;36264;51.296;-0.602;2023-04-21T01:04:01;101363.91;;;14.62;59.13
50356;BME280;36264;51.296;-0.602;2023-04-21T01:06:31;101353.94;;;14.72;59.00
50356;BME280;36264;51.296;-0.602;2023-04-21T01:08:58;101353.38;;;14.40;59.54
50356;BME280;36264;51.296;-0.602;2023-04-21T01:11:23;101350.09;;;14.35;59.62
50356;BME280;36264;51.296;-0.602;2023-04-21T01:13:51;101351.97;;;14.55;59.83
50356;BME280;36264;51.296;-0.602;2023-04-21T01:16:18;101357.03;;;14.36;60.25
50356;BME280;36264;51.296;-0.602;2023-04-21T01:18:44;101343.16;;;14.34;60.97
50356;BME280;36264;51.296;-0.602;2023-04-21T01:21:10;101353.59;;;14.34;60.21
50356;BME280;36264;51.296;-0.602;2023-04-21T01:23:38;101336.25;;;14.32;60.49
50356;BME280;36264;51.296;-0.602;2023-04-21T01:26:03;101342.97;;;14.38;60.06
50356;BME280;36264;51.296;-0.602;2023-04-21T01:28:28;101338.50;;;14.42;59.62
50356;BME280;36264;51.296;-0.602;2023-04-21T01:30:54;101328.84;;;14.44;59.65
50356;BME280;36264;51.296;-0.602;2023-04-21T01:33:20;101324.91;;;14.56;59.46
50356;BME280;36264;51.296;-0.602;2023-04-21T01:35:46;101320.72;;;14.52;59.70
50356;BME280;36264;51.296;-0.602;2023-04-21T01:38:11;101328.22;;;14.37;59.98
50356;BME280;36264;51.296;-0.602;2023-04-21T01:40:37;101325.22;;;14.48;59.73
50356;BME280;36264;51.296;-0.602;2023-04-21T01:43:03;101322.41;;;14.53;59.60
50356;BME280;36264;51.296;-0.602;2023-04-21T01:45:30;101324.63;;;14.63;59.31
50356;BME280;36264;51.296;-0.602;2023-04-21T01:47:55;101323.16;;;14.56;59.47
50356;BME280;36264;51.296;-0.602;2023-04-21T01:50:21;101317.72;;;14.62;59.45
50356;BME280;36264;51.296;-0.602;2023-04-21T01:52:46;101319.56;;;14.59;59.16
50356;BME280;36264;51.296;-0.602;2023-04-21T01:55:11;101307.28;;;14.62;59.04
50356;BME280;36264;51.296;-0.602;2023-04-21T01:57:37;101309.16;;;14.57;59.61
50356;BME280;36264;51.296;-0.602;2023-04-21T02:00:03;101290.66;;;14.63;59.45
50356;BME280;36264;51.296;-0.602;2023-04-21T02:02:29;101309.53;;;14.48;60.12
50356;BME280;36264;51.296;-0.602;2023-04-21T02:04:54;101299.00;;;14.49;59.68
50356;BME280;36264;51.296;-0.602;2023-04-21T02:07:19;101303.09;;;14.57;59.09
50356;BME280;36264;51.296;-0.602;2023-04-21T02:09:45;101296.03;;;14.59;59.34
50356;BME280;36264;51.296;-0.602;2023-04-21T02:12:10;101293.41;;;14.59;59.54
50356;BME280;36264;51.296;-0.602;2023-04-21T02:14:36;101294.19;;;14.62;59.66
50356;BME280;36264;51.296;-0.602;2023-04-21T02:17:02;101294.63;;;14.50;59.77
50356;BME280;36264;51.296;-0.602;2023-04-21T02:19:28;101285.63;;;14.57;59.59
50356;BME280;36264;51.296;-0.602;2023-04-21T02:21:54;101293.75;;;14.49;59.80
50356;BME280;36264;51.296;-0.602;2023-04-21T02:24:20;101273.84;;;14.47;59.95
50356;BME280;36264;51.296;-0.602;2023-04-21T02:26:45;101268.44;;;14.52;59.83
50356;BME280;36264;51.296;-0.602;2023-04-21T02:29:10;101272.63;;;14.56;59.23
50356;BME280;36264;51.296;-0.602;2023-04-21T02:31:36;101272.56;;;14.57;59.52
50356;BME280;36264;51.296;-0.602;2023-04-21T02:34:01;101275.16;;;14.57;59.41
50356;BME280;36264;51.296;-0.602;2023-04-21T02:36:26;101270.75;;;14.59;59.43
50356;BME280;36264;51.296;-0.602;2023-04-21T02:38:52;101270.69;;;14.62;59.25
50356;BME280;36264;51.296;-0.602;2023-04-21T02:41:17;101263.59;;;14.64;59.07
50356;BME280;36264;51.296;-0.602;2023-04-21T02:43:42;101259.28;;;14.63;59.39
50356;BME280;36264;51.296;-0.602;2023-04-21T02:46:08;101261.78;;;14.66;58.90
50356;BME280;36264;51.296;-0.602;2023-04-21T02:48:34;101256.00;;;14.80;58.86
50356;BME280;36264;51.296;-0.602;2023-04-21T02:51:00;101242.69;;;14.64;59.06
50356;BME280;36264;51.296;-0.602;2023-04-21T02:53:25;101243.53;;;14.65;59.42
50356;BME280;36264;51.296;-0.602;2023-04-21T02:55:51;101241.78;;;14.65;59.70
50356;BME280;36264;51.296;-0.602;2023-04-21T02:58:16;101231.53;;;14.59;59.63
50356;BME280;36264;51.296;-0.602;2023-04-21T03:00:42;101241.19;;;14.57;59.50
50356;BME280;36264;51.296;-0.602;2023-04-21T03:03:07;101246.53;;;14.54;59.35
50356;BME280;36264;51.296;-0.602;2023-04-21T03:05:32;101237.75;;;14.57;59.24
50356;BME280;36264;51.296;-0.602;2023-04-21T03:07:58;101236.16;;;14.53;60.00
50356;BME280;36264;51.296;-0.602;2023-04-21T03:10:23;101231.44;;;14.40;60.01
50356;BME280;36264;51.296;-0.602;2023-04-21T03:12:49;101229.66;;;14.41;59.93
50356;BME280;36264;51.296;-0.602;2023-04-21T03:15:14;101228.56;;;14.46;59.39
50356;BME280;36264;51.296;-0.602;2023-04-21T03:17:41;101228.31;;;14.53;59.59
50356;BME280;36264;51.296;-0.602;2023-04-21T03:20:07;101234.91;;;14.63;59.39
50356;BME280;36264;51.296;-0.602;2023-04-21T03:22:37;101229.72;;;14.83;58.95
50356;BME280;36264;51.296;-0.602;2023-04-21T03:25:02;101227.59;;;14.49;59.47
50356;BME280;36264;51.296;-0.602;2023-04-21T03:27:29;101224.53;;;14.38;59.82
50356;BME280;36264;51.296;-0.602;2023-04-21T03:29:54;101226.31;;;14.37;59.65
50356;BME280;36264;51.296;-0.602;2023-04-21T03:32:19;101224.44;;;14.41;59.56
50356;BME280;36264;51.296;-0.602;2023-04-21T03:34:45;101215.69;;;14.42;59.42
50356;BME280;36264;51.296;-0.602;2023-04-21T03:37:10;101211.31;;;14.42;59.41
50356;BME280;36264;51.296;-0.602;2023-04-21T03:39:36;101213.78;;;14.45;59.77
50356;BME280;36264;51.296;-0.602;2023-04-21T03:42:01;101219.63;;;14.52;59.46
50356;BME280;36264;51.296;-0.602;2023-04-21T03:44:26;101207.44;;;14.51;59.41
50356;BME280;36264;51.296;-0.602;2023-04-21T03:46:53;101208.91;;;14.60;59.22
50356;BME280;36264;51.296;-0.602;2023-04-21T03:49:19;101206.56;;;14.52;59.54
50356;BME280;36264;51.296;-0.602;2023-04-21T03:51:45;101199.75;;;14.48;59.49
50356;BME280;36264;51.296;-0.602;2023-04-21T03:54:10;101197.22;;;14.46;59.47
50356;BME280;36264;51.296;-0.602;2023-04-21T03:56:36;101194.66;;;14.45;59.48
50356;BME280;36264;51.296;-0.602;2023-04-21T03:59:01;101193.06;;;14.41;60.09
50356;BME280;36264;51.296;-0.602;2023-04-21T04:01:26;101184.16;;;14.24;60.36
50356;BME280;36264;51.296;-0.602;2023-04-21T04:03:52;101179.59;;;14.29;59.93
50356;BME280;36264;51.296;-0.602;2023-04-21T04:06:17;101178.75;;;14.29;60.18
50356;BME280;36264;51.296;-0.602;2023-04-21T04:08:43;101180.25;;;14.35;59.69
50356;BME280;36264;51.296;-0.602;2023-04-21T04:11:08;101177.63;;;14.35;59.93
50356;BME280;36264;51.296;-0.602;2023-04-21T04:13:33;101181.09;;;14.35;59.85
50356;BME280;36264;51.296;-0.602;2023-04-21T04:15:59;101180.78;;;14.43;59.27
50356;BME280;36264;51.296;-0.602;2023-04-21T04:18:24;101177.22;;;14.45;59.50
50356;BME280;36264;51.296;-0.602;2023-04-21T04:20:50;101176.72;;;14.36;59.58
50356;BME280;36264;51.296;-0.602;2023-04-21T04:23:15;101169.72;;;14.36;59.38
50356;BME280;36264;51.296;-0.602;2023-04-21T04:25:40;101165.16;;;14.41;59.22
50356;BME280;36264;51.296;-0.602;2023-04-21T04:28:06;101160.88;;;14.40;59.49
50356;BME280;36264;51.296;-0.602;2023-04-21T04:30:33;101154.94;;;14.35;59.23
50356;BME280;36264;51.296;-0.602;2023-04-21T04:32:59;101151.75;;;14.28;59.72
50356;BME280;36264;51.296;-0.602;2023-04-21T04:35:25;101152.03;;;14.21;59.97
50356;BME280;36264;51.296;-0.602;2023-04-21T04:37:50;101152.97;;;14.20;60.01
50356;BME280;36264;51.296;-0.602;2023-04-21T04:40:16;101146.69;;;14.24;59.97
50356;BME280;36264;51.296;-0.602;2023-04-21T04:42:42;101150.06;;;14.27;59.72
50356;BME280;36264;51.296;-0.602;2023-04-21T04:45:08;101159.34;;;14.35;59.56
50356;BME280;36264;51.296;-0.602;2023-04-21T04:47:34;101147.69;;;14.43;59.45
50356;BME280;36264;51.296;-0.602;2023-04-21T04:49:59;101147.28;;;14.30;59.75
50356;BME280;36264;51.296;-0.602;2023-04-21T04:52:25;101144.22;;;14.21;59.49
50356;BME280;36264;51.296;-0.602;2023-04-21T04:54:50;101134.50;;;14.24;59.61
50356;BME280;36264;51.296;-0.602;2023-04-21T04:57:16;101140.34;;;14.31;59.30
50356;BME280;36264;51.296;-0.602;2023-04-21T04:59:41;101133.44;;;14.28;59.52
50356;BME280;36264;51.296;-0.602;2023-04-21T05:02:06;101132.69;;;14.26;59.49
50356;BME280;36264;51.296;-0.602;2023-04-21T05:04:35;101129.03;;;14.51;59.41
50356;BME280;36264;51.296;-0.602;2023-04-21T05:07:00;101134.50;;;14.24;59.48
50356;BME280;36264;51.296;-0.602;2023-04-21T05:09:26;101133.69;;;14.22;59.69
50356;BME280;36264;51.296;-0.602;2023-04-21T05:11:51;101124.00;;;14.26;59.29
50356;BME280;36264;51.296;-0.602;2023-04-21T05:14:17;101117.72;;;14.30;59.03
50356;BME280;36264;51.296;-0.602;2023-04-21T05:16:42;101118.38;;;14.35;59.39
50356;BME280;36264;51.296;-0.602;2023-04-21T05:19:08;101113.28;;;14.32;59.08
50356;BME280;36264;51.296;-0.602;2023-04-21T05:21:33;101111.66;;;14.29;59.49
50356;BME280;36264;51.296;-0.602;2023-04-21T05:23:59;101115.81;;;14.34;59.24
50356;BME280;36264;51.296;-0.602;2023-04-21T05:26:26;101117.28;;;14.41;59.18
50356;BME280;36264;51.296;-0.602;2023-04-21T05:28:52;101114.00;;;14.36;59.38
50356;BME280;36264;51.296;-0.602;2023-04-21T05:31:18;101110.19;;;14.22;59.48
50356;BME280;36264;51.296;-0.602;2023-04-21T05:33:43;101114.56;;;14.22;59.38
50356;BME280;36264;51.296;-0.602;2023-04-21T05:36:09;101101.84;;;14.35;59.58
50356;BME280;36264;51.296;-0.602;2023-04-21T05:38:36;101102.38;;;14.43;59.54
50356;BME280;36264;51.296;-0.602;2023-04-21T05:41:02;101089.44;;;14.40;59.19
50356;BME280;36264;51.296;-0.602;2023-04-21T05:43:27;101091.38;;;14.14;59.61
50356;BME280;36264;51.296;-0.602;2023-04-21T05:45:52;101092.13;;;14.16;59.67
50356;BME280;36264;51.296;-0.602;2023-04-21T05:48:18;101093.78;;;14.19;59.79
50356;BME280;36264;51.296;-0.602;2023-04-21T05:50:43;101091.06;;;14.22;59.62
50356;BME280;36264;51.296;-0.602;2023-04-21T05:53:09;101091.06;;;14.22;59.39
50356;BME280;36264;51.296;-0.602;2023-04-21T05:55:34;101078.66;;;14.27;59.54
50356;BME280;36264;51.296;-0.602;2023-04-21T05:58:00;101078.84;;;14.22;59.32
50356;BME280;36264;51.296;-0.602;2023-04-21T06:00:25;101073.53;;;14.24;59.57
50356;BME280;36264;51.296;-0.602;2023-04-21T06:02:50;101076.16;;;14.24;59.73
50356;BME280;36264;51.296;-0.602;2023-04-21T06:05:16;101077.03;;;14.24;59.77
50356;BME280;36264;51.296;-0.602;2023-04-21T06:07:42;101065.91;;;14.19;59.67
50356;BME280;36264;51.296;-0.602;2023-04-21T06:10:07;101062.91;;;14.28;59.38
50356;BME280;36264;51.296;-0.602;2023-04-21T06:12:33;101066.72;;;14.21;59.99
50356;BME280;36264;51.296;-0.602;2023-04-21T06:14:58;101059.59;;;14.25;59.76
50356;BME280;36264;51.296;-0.602;2023-04-21T06:17:24;101061.34;;;14.24;59.87
50356;BME280;36264;51.296;-0.602;2023-04-21T06:19:49;101061.81;;;14.34;59.62
50356;BME280;36264;51.296;-0.602;2023-04-21T06:22:20;101059.72;;;14.42;59.34
50356;BME280;36264;51.296;-0.602;2023-04-21T06:24:45;101056.03;;;14.48;59.23
50356;BME280;36264;51.296;-0.602;2023-04-21T06:27:11;101047.44;;;14.44;59.33
50356;BME280;36264;51.296;-0.602;2023-04-21T06:29:37;101048.09;;;14.49;59.42
50356;BME280;36264;51.296;-0.602;2023-04-21T06:32:02;101046.22;;;14.53;59.20
50356;BME280;36264;51.296;-0.602;2023-04-21T06:34:28;101039.16;;;14.55;59.40
50356;BME280;36264;51.296;-0.602;2023-04-21T06:36:53;101033.69;;;14.61;59.18
50356;BME280;36264;51.296;-0.602;2023-04-21T06:39:19;101032.94;;;14.58;59.32
50356;BME280;36264;51.296;-0.602;2023-04-21T06:41:44;101025.22;;;14.55;59.88
50356;BME280;36264;51.296;-0.602;2023-04-21T06:44:10;101025.09;;;14.58;59.57
50356;BME280;36264;51.296;-0.602;2023-04-21T06:46:39;101024.44;;;14.73;59.56
50356;BME280;36264;51.296;-0.602;2023-04-21T06:49:05;101017.88;;;14.64;59.23
50356;BME280;36264;51.296;-0.602;2023-04-21T06:51:30;101012.38;;;14.71;59.29
50356;BME280;36264;51.296;-0.602;2023-04-21T06:53:56;101019.16;;;14.75;59.14
50356;BME280;36264;51.296;-0.602;2023-04-21T06:56:21;101013.78;;;14.78;59.09
50356;BME280;36264;51.296;-0.602;2023-04-21T06:58:47;101018.03;;;14.80;58.94
50356;BME280;36264;51.296;-0.602;2023-04-21T07:01:12;101008.69;;;14.75;59.19
50356;BME280;36264;51.296;-0.602;2023-04-21T07:03:37;101004.81;;;14.64;59.44
50356;BME280;36264;51.296;-0.602;2023-04-21T07:06:03;101010.72;;;14.68;59.67
50356;BME280;36264;51.296;-0.602;2023-04-21T07:08:28;101006.41;;;14.67;59.58
50356;BME280;36264;51.296;-0.602;2023-04-21T07:10:54;101010.78;;;14.66;59.34
50356;BME280;36264;51.296;-0.602;2023-04-21T07:13:19;101006.22;;;14.72;59.37
50356;BME280;36264;51.296;-0.602;2023-04-21T07:15:45;101006.88;;;14.77;59.02
50356;BME280;36264;51.296;-0.602;2023-04-21T07:18:10;100991.41;;;14.72;59.46
50356;BME280;36264;51.296;-0.602;2023-04-21T07:20:36;101001.91;;;14.71;59.14
50356;BME280;36264;51.296;-0.602;2023-04-21T07:23:01;101001.66;;;14.77;59.21
50356;BME280;36264;51.296;-0.602;2023-04-21T07:25:27;100991.19;;;14.77;59.44
50356;BME280;36264;51.296;-0.602;2023-04-21T07:27:52;100987.06;;;14.71;59.67
50356;BME280;36264;51.296;-0.602;2023-04-21T07:30:18;100982.59;;;14.73;59.39
50356;BME280;36264;51.296;-0.602;2023-04-21T07:32:43;100976.41;;;14.76;59.63
50356;BME280;36264;51.296;-0.602;2023-04-21T07:35:10;100974.91;;;14.89;59.38
50356;BME280;36264;51.296;-0.602;2023-04-21T07:37:35;100973.25;;;14.88;59.68
50356;BME280;36264;51.296;-0.602;2023-04-21T07:40:01;100970.63;;;14.88;59.82
50356;BME280;36264;51.296;-0.602;2023-04-21T07:42:27;100969.28;;;14.98;59.77
50356;BME280;36264;51.296;-0.602;2023-04-21T07:44:52;100957.97;;;14.98;59.88
50356;BME280;36264;51.296;-0.602;2023-04-21T07:47:18;100965.41;;;15.07;60.05
50356;BME280;36264;51.296;-0.602;2023-04-21T07:49:44;100956.69;;;15.07;60.00
50356;BME280;36264;51.296;-0.602;2023-04-21T07:52:10;100953.09;;;15.09;60.24
50356;BME280;36264;51.296;-0.602;2023-04-21T07:54:35;100951.16;;;15.13;60.02
50356;BME280;36264;51.296;-0.602;2023-04-21T07:57:00;100950.06;;;15.18;59.88
50356;BME280;36264;51.296;-0.602;2023-04-21T07:59:27;100950.53;;;15.27;59.61
50356;BME280;36264;51.296;-0.602;2023-04-21T08:01:52;100948.81;;;15.26;59.34
50356;BME280;36264;51.296;-0.602;2023-04-21T08:04:18;100950.81;;;15.20;59.82
50356;BME280;36264;51.296;-0.602;2023-04-21T08:06:43;100949.69;;;15.26;59.57
50356;BME280;36264;51.296;-0.602;2023-04-21T08:09:09;100948.06;;;15.24;59.41
50356;BME280;36264;51.296;-0.602;2023-04-21T08:11:34;100952.31;;;15.26;59.70
50356;BME280;36264;51.296;-0.602;2023-04-21T08:14:00;100949.13;;;15.38;59.47
50356;BME280;36264;51.296;-0.602;2023-04-21T08:16:26;100941.84;;;15.26;59.26
50356;BME280;36264;51.296;-0.602;2023-04-21T08:18:51;100948.19;;;15.20;59.25
50356;BME280;36264;51.296;-0.602;2023-04-21T08:21:16;100943.31;;;15.13;58.68
50356;BME280;36264;51.296;-0.602;2023-04-21T08:23:42;100957.63;;;15.25;58.92
50356;BME280;36264;51.296;-0.602;2023-04-21T08:26:08;100945.94;;;15.13;59.06
50356;BME280;36264;51.296;-0.602;2023-04-21T08:28:33;100948.41;;;15.16;58.47
50356;BME280;36264;51.296;-0.602;2023-04-21T08:30:58;100946.88;;;15.12;58.81
50356;BME280;36264;51.296;-0.602;2023-04-21T08:33:26;100938.09;;;15.13;58.92
50356;BME280;36264;51.296;-0.602;2023-04-21T08:35:52;100934.44;;;15.17;58.60
50356;BME280;36264;51.296;-0.602;2023-04-21T08:38:18;100933.31;;;15.23;58.33
50356;BME280;36264;51.296;-0.602;2023-04-21T08:40:43;100935.91;;;15.23;58.73
50356;BME280;36264;51.296;-0.602;2023-04-21T08:43:09;100936.53;;;15.28;58.30
50356;BME280;36264;51.296;-0.602;2023-04-21T08:45:34;100932.63;;;15.36;58.07
50356;BME280;36264;51.296;-0.602;2023-04-21T08:48:01;100928.44;;;15.51;57.75
50356;BME280;36264;51.296;-0.602;2023-04-21T08:50:29;100930.41;;;15.46;58.31
50356;BME280;36264;51.296;-0.602;2023-04-21T08:52:56;100924.47;;;15.43;57.93
50356;BME280;36264;51.296;-0.602;2023-04-21T08:55:27;100935.13;;;15.57;57.89
50356;BME280;36264;51.296;-0.602;2023-04-21T08:57:53;100926.50;;;15.18;57.87
50356;BME280;36264;51.296;-0.602;2023-04-21T09:00:18;100935.91;;;15.23;58.20
50356;BME280;36264;51.296;-0.602;2023-04-21T09:03:00;100928.56;;;15.48;57.49
50356;BME280;36264;51.296;-0.602;2023-04-21T09:05:31;100929.75;;;15.24;58.40
50356;BME280;36264;51.296;-0.602;2023-04-21T09:08:26;100932.31;;;15.43;58.19
50356;BME280;36264;51.296;-0.602;2023-04-21T09:10:54;100935.34;;;15.16;58.58
50356;BME280;36264;51.296;-0.602;2023-04-21T09:13:28;100932.63;;;15.36;58.24
50356;BME280;36264;51.296;-0.602;2023-04-21T09:15:54;100931.97;;;14.95;58.53
50356;BME280;36264;51.296;-0.602;2023-04-21T09:18:21;100926.78;;;15.12;58.61
50356;BME280;36264;51.296;-0.602;2023-04-21T09:20:49;100936.91;;;15.20;59.09
50356;BME280;36264;51.296;-0.602;2023-04-21T09:23:15;100930.13;;;14.97;58.73
50356;BME280;36264;51.296;-0.602;2023-04-21T09:25:42;100930.38;;;15.10;59.05
50356;BME280;36264;51.296;-0.602;2023-04-21T09:28:12;100933.84;;;15.29;59.02
50356;BME280;36264;51.296;-0.602;2023-04-21T09:30:40;100937.69;;;15.39;58.49
50356;BME280;36264;51.296;-0.602;2023-04-21T09:33:05;100936.06;;;15.19;58.59
50356;BME280;36264;51.296;-0.602;2023-04-21T09:35:35;100936.28;;;15.51;58.01
50356;BME280;36264;51.296;-0.602;2023-04-21T09:38:02;100935.31;;;15.35;58.68
50356;BME280;36264;51.296;-0.602;2023-04-21T09:40:29;100932.97;;;15.29;58.88
50356;BME280;36264;51.296;-0.602;2023-04-21T09:42:55;100941.56;;;15.13;59.17
50356;BME280;36264;51.296;-0.602;2023-04-21T09:45:24;100939.41;;;15.40;58.99
50356;BME280;36264;51.296;-0.602;2023-04-21T09:47:57;100938.31;;;15.45;59.19
50356;BME280;36264;51.296;-0.602;2023-04-21T09:50:23;100940.69;;;15.32;59.20
50356;BME280;36264;51.296;-0.602;2023-04-21T09:52:51;100935.44;;;15.32;59.14
50356;BME280;36264;51.296;-0.602;2023-04-21T09:55:18;100935.44;;;15.32;59.53
50356;BME280;36264;51.296;-0.602;2023-04-21T09:57:46;100940.19;;;15.43;59.63
50356;BME280;36264;51.296;-0.602;2023-04-21T10:00:13;100944.25;;;15.31;59.94
50356;BME280;36264;51.296;-0.602;2023-04-21T10:02:44;100937.56;;;15.43;59.98
50356;BME280;36264;51.296;-0.602;2023-04-21T10:05:11;100939.09;;;15.10;60.48
50356;BME280;36264;51.296;-0.602;2023-04-21T10:07:37;100933.16;;;15.07;60.98
50356;BME280;36264;51.296;-0.602;2023-04-21T10:10:06;100942.25;;;15.36;61.23
50356;BME280;36264;51.296;-0.602;2023-04-21T10:12:32;100934.72;;;15.11;62.08
50356;BME280;36264;51.296;-0.602;2023-04-21T10:15:03;100943.22;;;15.33;62.41
50356;BME280;36264;51.296;-0.602;2023-04-21T10:17:28;100941.38;;;14.99;63.13
50356;BME280;36264;51.296;-0.602;2023-04-21T10:19:56;100948.84;;;15.07;63.70
50356;BME280;36264;51.296;-0.602;2023-04-21T10:22:34;100945.78;;;15.16;64.89
50356;BME280;36264;51.296;-0.602;2023-04-21T10:25:01;100944.56;;;14.87;65.00
50356;BME280;36264;51.296;-0.602;2023-04-21T10:27:44;100940.22;;;15.04;66.09
50356;BME280;36264;51.296;-0.602;2023-04-21T10:30:19;100938.38;;;15.07;65.38
50356;BME280;36264;51.296;-0.602;2023-04-21T10:32:46;100940.34;;;14.63;66.07
50356;BME280;36264;51.296;-0.602;2023-04-21T10:35:21;100929.13;;;14.80;66.29
50356;BME280;36264;51.296;-0.602;2023-04-21T10:37:48;100927.44;;;14.79;66.68
50356;BME280;36264;51.296;-0.602;2023-04-21T10:40:33;100925.69;;;14.99;68.23
50356;BME280;36264;51.296;-0.602;2023-04-21T10:43:02;100917.78;;;14.81;67.38
50356;BME280;36264;51.296;-0.602;2023-04-21T10:45:27;100919.69;;;14.57;67.56
50356;BME280;36264;51.296;-0.602;2023-04-21T10:47:52;100923.16;;;14.58;68.23
50356;BME280;36264;51.296;-0.602;2023-04-21T10:50:20;100918.59;;;14.82;68.33
50356;BME280;36264;51.296;-0.602;2023-04-21T10:52:55;100919.78;;;14.94;69.13
50356;BME280;36264;51.296;-0.602;2023-04-21T10:55:21;100920.63;;;14.56;69.05
50356;BME280;36264;51.296;-0.602;2023-04-21T10:57:49;100916.38;;;14.54;68.94
50356;BME280;36264;51.296;-0.602;2023-04-21T11:00:17;100916.84;;;14.82;68.78
50356;BME280;36264;51.296;-0.602;2023-04-21T11:02:43;100917.84;;;14.61;69.16
50356;BME280;36264;51.296;-0.602;2023-04-21T11:05:08;100915.22;;;14.61;69.20
50356;BME280;36264;51.296;-0.602;2023-04-21T11:07:34;100915.38;;;14.56;69.55
50356;BME280;36264;51.296;-0.602;2023-04-21T11:10:01;100907.81;;;14.71;69.14
50356;BME280;36264;51.296;-0.602;2023-04-21T11:12:32;100909.06;;;14.81;69.23
50356;BME280;36264;51.296;-0.602;2023-04-21T11:14:57;100913.38;;;14.42;70.13
50356;BME280;36264;51.296;-0.602;2023-04-21T11:17:23;100913.81;;;14.52;69.78
50356;BME280;36264;51.296;-0.602;2023-04-21T11:19:53;100907.38;;;14.80;69.47
50356;BME280;36264;51.296;-0.602;2023-04-21T11:22:21;100904.75;;;14.61;70.04
50356;BME280;36264;51.296;-0.602;2023-04-21T11:24:48;100902.78;;;14.66;69.86
50356;BME280;36264;51.296;-0.602;2023-04-21T11:27:15;100906.38;;;14.43;70.67
50356;BME280;36264;51.296;-0.602;2023-04-21T11:29:44;100898.53;;;14.63;70.73
50356;BME280;36264;51.296;-0.602;2023-04-21T11:32:10;100907.25;;;14.43;70.90
50356;BME280;36264;51.296;-0.602;2023-04-21T11:34:36;100896.84;;;14.62;71.26
50356;BME280;36264;51.296;-0.602;2023-04-21T11:37:02;100904.00;;;14.57;71.48
50356;BME280;36264;51.296;-0.602;2023-04-21T11:39:27;100896.59;;;14.67;71.91
50356;BME280;36264;51.296;-0.602;2023-04-21T11:41:53;100892.19;;;14.69;72.28
50356;BME280;36264;51.296;-0.602;2023-04-21T11:46:56;100893.19;;;14.46;74.31
50356;BME280;36264;51.296;-0.602;2023-04-21T11:49:24;100890.41;;;14.70;74.54
50356;BME280;36264;51.296;-0.602;2023-04-21T11:51:50;100889.81;;;14.44;74.33
50356;BME280;36264;51.296;-0.602;2023-04-21T11:54:16;100890.84;;;14.40;75.63
50356;BME280;36264;51.296;-0.602;2023-04-21T11:56:45;100880.69;;;14.53;75.82
50356;BME280;36264;51.296;-0.602;2023-04-21T11:59:13;100891.19;;;14.51;75.51
50356;BME280;36264;51.296;-0.602;2023-04-21T12:01:46;100887.47;;;14.57;75.35
50356;BME280;36264;51.296;-0.602;2023-04-21T12:04:18;100890.22;;;14.54;76.10
50356;BME280;36264;51.296;-0.602;2023-04-21T12:06:45;100888.34;;;14.37;76.67
50356;BME280;36264;51.296;-0.602;2023-04-21T12:09:18;100891.72;;;14.59;76.55
50356;BME280;36264;51.296;-0.602;2023-04-21T12:11:47;100886.47;;;14.61;76.34
50356;BME280;36264;51.296;-0.602;2023-04-21T12:14:14;100889.81;;;14.44;76.71
50356;BME280;36264;51.296;-0.602;2023-04-21T12:16:41;100895.53;;;14.52;76.54
50356;BME280;36264;51.296;-0.602;2023-04-21T12:19:07;100892.06;;;14.52;76.43
50356;BME280;36264;51.296;-0.602;2023-04-21T12:21:32;100892.00;;;14.53;76.43
50356;BME280;36264;51.296;-0.602;2023-04-21T12:23:57;100884.03;;;14.56;76.14
50356;BME280;36264;51.296;-0.602;2023-04-21T12:26:23;100885.44;;;14.63;76.17
50356;BME280;36264;51.296;-0.602;2023-04-21T12:28:49;100888.94;;;14.83;75.86
50356;BME280;36264;51.296;-0.602;2023-04-21T12:31:15;100890.13;;;14.76;75.69
50356;BME280;36264;51.296;-0.602;2023-04-21T12:33:40;100896.41;;;14.72;75.82
50356;BME280;36264;51.296;-0.602;2023-04-21T12:36:06;100893.16;;;14.66;75.79
50356;BME280;36264;51.296;-0.602;2023-04-21T12:38:31;100893.38;;;14.62;76.30